Darstellungsparameter: Aktuell verwendete Einstellungen:
Skalierung der Graphiken ... ?
xyx+y,   Skalierungsfaktor:      Skalierung: Modus: x, Faktor: 1
Darstellungszeitraum ... ?
Vom - - bis: - -   Zeitraum: 27.04.2018 - 27.04.2018
Min/Max/Avg-Anzeige ... ?
Zeige MMA aktuell
Zeige MMA Monat
Zeige MMA alles
Zeige --A aktuell
Zeige --A Monat
Zeige --A alles
Keine MMA-Anzeige
MMA:
Keine MMA-Graphiken
MMA-Basis: 27.04.2018 - 27.04.2018
Quicknavigation für Darstellung... ?
Tage:      1T, 2T, 3T, 5T -1T -2T -3T -5T +1T +2T +3T +5T
Wochen: 1W, 2W, 3W -1W -2W -3W +1W +2W +3W
Monate: 1M, 3M, 6M -1M -3M -6M +1M +3M +6M
Jahre:    1J, 3J, 5J, 10J -1J -3J -5J -10J +1J +3J +5J +10J
Nutze für die Darstellung ... ?
Originaldaten oder Mittelwerte auf ...
Stundenbasis Tagesbasis Wochenbasis
Monatsbasis Jahresbasis      Datenbasis: Original-Daten
Darstellen als:
Statistik (Auto) Statistik J:M      Darstellung:
Zur Graphik,    zurück zur Übersicht aller Sensoren.
 
Tabellarische Datenbersicht: ?
 
Sensor: Nr:Datum:Temp:Feuchte:Taupunkt:
Aussen-T/F 1 27-04-2018 00:00:00 6.9 C 81 % 3.87 C
2 27-04-2018 00:05:00 6.8 C 81 % 3.77 C
3 27-04-2018 00:10:00 6.8 C 81 % 3.77 C
4 27-04-2018 00:15:00 6.9 C 81 % 3.87 C
5 27-04-2018 00:20:00 6.9 C 81 % 3.87 C
6 27-04-2018 00:25:00 7 C 81 % 3.97 C
7 27-04-2018 00:30:00 7 C 80 % 3.79 C
8 27-04-2018 00:35:00 6.9 C 81 % 3.87 C
9 27-04-2018 00:40:00 6.9 C 81 % 3.87 C
10 27-04-2018 00:45:00 6.9 C 81 % 3.87 C
11 27-04-2018 00:50:00 6.8 C 81 % 3.77 C
12 27-04-2018 00:55:00 6.8 C 81 % 3.77 C
13 27-04-2018 01:00:00 6.8 C 82 % 3.95 C
14 27-04-2018 01:05:00 6.7 C 82 % 3.85 C
15 27-04-2018 01:10:00 6.6 C 82 % 3.75 C
16 27-04-2018 01:15:00 6.6 C 83 % 3.92 C
17 27-04-2018 01:20:00 6.5 C 83 % 3.83 C
18 27-04-2018 01:25:00 6.4 C 83 % 3.73 C
19 27-04-2018 01:30:00 6.4 C 83 % 3.73 C
20 27-04-2018 01:35:00 6.3 C 84 % 3.8 C
21 27-04-2018 01:40:00 6.4 C 84 % 3.9 C
22 27-04-2018 01:45:00 6.4 C 84 % 3.9 C
23 27-04-2018 01:50:00 6.3 C 84 % 3.8 C
24 27-04-2018 01:55:00 6.3 C 84 % 3.8 C
25 27-04-2018 02:00:00 6.2 C 84 % 3.7 C
Sensor: Nr:Datum:Temp:Feuchte:Taupunkt:
Aussen-T/F 26 27-04-2018 02:05:00 6.1 C 84 % 3.61 C
27 27-04-2018 02:10:00 5.9 C 84 % 3.41 C
28 27-04-2018 02:15:00 5.8 C 85 % 3.48 C
29 27-04-2018 02:20:00 5.7 C 85 % 3.38 C
30 27-04-2018 02:25:00 5.6 C 85 % 3.28 C
31 27-04-2018 02:30:00 5.6 C 86 % 3.45 C
32 27-04-2018 02:35:00 5.5 C 87 % 3.51 C
33 27-04-2018 02:40:00 5.4 C 87 % 3.41 C
34 27-04-2018 02:45:00 5.4 C 87 % 3.41 C
35 27-04-2018 02:50:00 5.3 C 87 % 3.32 C
36 27-04-2018 02:55:00 5.2 C 88 % 3.38 C
37 27-04-2018 03:00:00 5.2 C 88 % 3.38 C
38 27-04-2018 03:05:00 5.1 C 88 % 3.28 C
39 27-04-2018 03:10:00 5.1 C 88 % 3.28 C
40 27-04-2018 03:15:00 5 C 88 % 3.18 C
41 27-04-2018 03:20:00 4.9 C 88 % 3.08 C
42 27-04-2018 03:25:00 4.9 C 89 % 3.24 C
43 27-04-2018 03:30:00 4.9 C 89 % 3.24 C
44 27-04-2018 03:35:00 4.8 C 89 % 3.14 C
45 27-04-2018 03:40:00 4.8 C 89 % 3.14 C
46 27-04-2018 03:45:00 4.8 C 89 % 3.14 C
47 27-04-2018 03:50:00 4.7 C 89 % 3.05 C
48 27-04-2018 03:55:00 4.7 C 90 % 3.2 C
49 27-04-2018 04:00:00 4.7 C 90 % 3.2 C
50 27-04-2018 04:05:00 4.7 C 90 % 3.2 C
Sensor: Nr:Datum:Temp:Feuchte:Taupunkt:
Aussen-T/F 51 27-04-2018 04:10:00 4.8 C 91 % 3.46 C
52 27-04-2018 04:15:00 4.9 C 91 % 3.56 C
53 27-04-2018 04:20:00 5.1 C 91 % 3.76 C
54 27-04-2018 04:25:00 5.2 C 91 % 3.85 C
55 27-04-2018 04:30:00 5.2 C 91 % 3.85 C
56 27-04-2018 04:35:00 5.2 C 91 % 3.85 C
57 27-04-2018 04:40:00 5.2 C 91 % 3.85 C
58 27-04-2018 04:45:00 5.2 C 91 % 3.85 C
59 27-04-2018 04:50:00 5.2 C 91 % 3.85 C
60 27-04-2018 04:55:00 5.2 C 91 % 3.85 C
61 27-04-2018 05:00:00 5.2 C 91 % 3.85 C
62 27-04-2018 05:05:00 5.2 C 91 % 3.85 C
63 27-04-2018 05:10:00 5.2 C 91 % 3.85 C
64 27-04-2018 05:15:00 5.2 C 91 % 3.85 C
65 27-04-2018 05:20:00 5.2 C 91 % 3.85 C
66 27-04-2018 05:25:00 5.2 C 91 % 3.85 C
67 27-04-2018 05:30:00 5.2 C 91 % 3.85 C
68 27-04-2018 05:35:00 5.2 C 91 % 3.85 C
69 27-04-2018 05:40:00 5.2 C 91 % 3.85 C
70 27-04-2018 05:45:00 5.1 C 90 % 3.6 C
71 27-04-2018 05:50:00 5.1 C 91 % 3.76 C
72 27-04-2018 05:55:00 5.1 C 90 % 3.6 C
73 27-04-2018 06:00:00 4.9 C 90 % 3.4 C
74 27-04-2018 06:05:00 4.9 C 90 % 3.4 C
75 27-04-2018 06:10:00 4.8 C 90 % 3.3 C
Sensor: Nr:Datum:Temp:Feuchte:Taupunkt:
Aussen-T/F 76 27-04-2018 06:15:00 4.7 C 90 % 3.2 C
77 27-04-2018 06:20:00 4.7 C 90 % 3.2 C
78 27-04-2018 06:25:00 4.6 C 91 % 3.26 C
79 27-04-2018 06:30:00 4.5 C 91 % 3.16 C
80 27-04-2018 06:35:00 4.4 C 91 % 3.06 C
81 27-04-2018 06:40:00 4.4 C 91 % 3.06 C
82 27-04-2018 06:45:00 4.4 C 91 % 3.06 C
83 27-04-2018 06:50:00 4.4 C 91 % 3.06 C
84 27-04-2018 06:55:00 4.4 C 92 % 3.22 C
85 27-04-2018 07:00:00 4.4 C 92 % 3.22 C
86 27-04-2018 07:05:00 4.6 C 92 % 3.42 C
87 27-04-2018 07:10:00 4.6 C 92 % 3.42 C
88 27-04-2018 07:15:00 4.7 C 93 % 3.67 C
89 27-04-2018 07:20:00 4.8 C 93 % 3.77 C
90 27-04-2018 07:25:00 5 C 93 % 3.96 C
91 27-04-2018 07:30:00 5.2 C 93 % 4.16 C
92 27-04-2018 07:35:00 5.3 C 93 % 4.26 C
93 27-04-2018 07:40:00 5.4 C 93 % 4.36 C
94 27-04-2018 07:45:00 5.4 C 93 % 4.36 C
95 27-04-2018 07:50:00 5.6 C 93 % 4.56 C
96 27-04-2018 07:55:00 5.7 C 93 % 4.66 C
97 27-04-2018 08:00:00 5.7 C 93 % 4.66 C
98 27-04-2018 08:05:00 5.8 C 93 % 4.76 C
99 27-04-2018 08:10:00 5.8 C 92 % 4.6 C
100 27-04-2018 08:15:00 5.9 C 92 % 4.7 C
Sensor: Nr:Datum:Temp:Feuchte:Taupunkt:
Aussen-T/F 101 27-04-2018 08:20:00 6.1 C 92 % 4.9 C
102 27-04-2018 08:25:00 6.2 C 91 % 4.84 C
103 27-04-2018 08:30:00 6.3 C 91 % 4.94 C
104 27-04-2018 08:35:00 6.4 C 90 % 4.88 C
105 27-04-2018 08:40:00 6.6 C 91 % 5.24 C
106 27-04-2018 08:45:00 6.7 C 90 % 5.18 C
107 27-04-2018 08:50:00 6.8 C 90 % 5.28 C
108 27-04-2018 08:55:00 6.9 C 90 % 5.38 C
109 27-04-2018 09:00:00 7.1 C 89 % 5.41 C
110 27-04-2018 09:05:00 7.2 C 88 % 5.35 C
111 27-04-2018 09:10:00 7.3 C 88 % 5.45 C
112 27-04-2018 09:15:00 7.5 C 88 % 5.64 C
113 27-04-2018 09:20:00 7.6 C 87 % 5.58 C
114 27-04-2018 09:25:00 7.8 C 88 % 5.94 C
115 27-04-2018 09:30:00 8 C 88 % 6.14 C
116 27-04-2018 09:35:00 8.1 C 88 % 6.24 C
117 27-04-2018 09:40:00 8.3 C 88 % 6.43 C
118 27-04-2018 09:45:00 8.4 C 89 % 6.7 C
119 27-04-2018 09:50:00 8.6 C 88 % 6.73 C
120 27-04-2018 09:55:00 8.7 C 89 % 6.99 C
121 27-04-2018 10:00:00 8.9 C 89 % 7.19 C
122 27-04-2018 10:05:00 9.1 C 89 % 7.39 C
123 27-04-2018 10:10:00 9.3 C 89 % 7.58 C
124 27-04-2018 10:15:00 9.6 C 88 % 7.71 C
125 27-04-2018 10:20:00 9.9 C 86 % 7.67 C
Sensor: Nr:Datum:Temp:Feuchte:Taupunkt:
Aussen-T/F 126 27-04-2018 10:25:00 10.3 C 82 % 7.37 C
127 27-04-2018 10:30:00 10.8 C 78 % 7.12 C
128 27-04-2018 10:35:00 11.3 C 75 % 7.04 C
129 27-04-2018 10:40:00 12 C 76 % 7.91 C
130 27-04-2018 10:45:00 12.3 C 69 % 6.78 C
131 27-04-2018 10:50:00 12.7 C 65 % 6.3 C
132 27-04-2018 10:55:00 13 C 63 % 6.13 C
133 27-04-2018 11:00:00 13.2 C 61 % 5.85 C
134 27-04-2018 11:05:00 13.4 C 62 % 6.28 C
135 27-04-2018 11:10:00 13.5 C 59 % 5.65 C
136 27-04-2018 11:15:00 13.7 C 62 % 6.56 C
137 27-04-2018 11:20:00 13.8 C 58 % 5.69 C
138 27-04-2018 11:25:00 13.8 C 58 % 5.69 C
139 27-04-2018 11:30:00 13.8 C 56 % 5.19 C
140 27-04-2018 11:35:00 13.9 C 57 % 5.53 C
141 27-04-2018 11:40:00 14.2 C 53 % 4.77 C
142 27-04-2018 11:45:00 14.3 C 54 % 5.13 C
143 27-04-2018 11:50:00 14.4 C 54 % 5.22 C
144 27-04-2018 11:55:00 14.6 C 52 % 4.87 C
145 27-04-2018 12:00:00 14.8 C 49 % 4.2 C
146 27-04-2018 12:05:00 14.9 C 49 % 4.29 C
147 27-04-2018 12:10:00 15 C 47 % 3.79 C
148 27-04-2018 12:15:00 14.9 C 48 % 4 C
149 27-04-2018 12:20:00 14.9 C 49 % 4.29 C
150 27-04-2018 12:25:00 14.9 C 47 % 3.7 C
Sensor: Nr:Datum:Temp:Feuchte:Taupunkt:
Aussen-T/F 151 27-04-2018 12:30:00 15.1 C 48 % 4.18 C
152 27-04-2018 12:35:00 15.3 C 48 % 4.37 C
153 27-04-2018 12:40:00 15.5 C 49 % 4.84 C
154 27-04-2018 12:45:00 15.6 C 47 % 4.34 C
155 27-04-2018 12:50:00 15.7 C 44 % 3.5 C
156 27-04-2018 12:55:00 15.8 C 45 % 3.9 C
157 27-04-2018 13:00:00 15.8 C 45 % 3.9 C
158 27-04-2018 13:05:00 15.8 C 43 % 3.26 C
159 27-04-2018 13:10:00 15.9 C 45 % 4 C
160 27-04-2018 13:15:00 16.1 C 43 % 3.53 C
161 27-04-2018 13:20:00 16.2 C 42 % 3.29 C
162 27-04-2018 13:25:00 16.3 C 44 % 4.04 C
163 27-04-2018 13:30:00 16.5 C 45 % 4.54 C
164 27-04-2018 13:35:00 16.6 C 44 % 4.31 C
165 27-04-2018 13:40:00 16.6 C 43 % 3.98 C
166 27-04-2018 13:45:00 16.5 C 45 % 4.54 C
167 27-04-2018 13:50:00 16.6 C 45 % 4.63 C
168 27-04-2018 13:55:00 16.6 C 46 % 4.95 C
169 27-04-2018 14:00:00 16.7 C 47 % 5.34 C
170 27-04-2018 14:05:00 16.8 C 49 % 6.04 C
171 27-04-2018 14:10:00 16.7 C 44 % 4.4 C
172 27-04-2018 14:15:00 16.7 C 47 % 5.34 C
173 27-04-2018 14:20:00 16.7 C 46 % 5.04 C
174 27-04-2018 14:25:00 16.7 C 46 % 5.04 C
175 27-04-2018 14:30:00 16.7 C 46 % 5.04 C
Sensor: Nr:Datum:Temp:Feuchte:Taupunkt:
Aussen-T/F 176 27-04-2018 14:35:00 16.8 C 46 % 5.13 C
177 27-04-2018 14:40:00 16.8 C 47 % 5.44 C
178 27-04-2018 14:45:00 17.1 C 47 % 5.71 C
179 27-04-2018 14:50:00 17.2 C 44 % 4.85 C
180 27-04-2018 14:55:00 17.4 C 45 % 5.36 C
181 27-04-2018 15:00:00 17.7 C 44 % 5.31 C
182 27-04-2018 15:05:00 17.8 C 44 % 5.4 C
183 27-04-2018 15:10:00 18 C 43 % 5.25 C
184 27-04-2018 15:15:00 17.9 C 44 % 5.49 C
185 27-04-2018 15:20:00 18 C 45 % 5.9 C
186 27-04-2018 15:25:00 18.1 C 44 % 5.67 C
187 27-04-2018 15:30:00 18.2 C 46 % 6.4 C
188 27-04-2018 15:35:00 18.4 C 44 % 5.94 C
189 27-04-2018 15:40:00 18.6 C 42 % 5.45 C
190 27-04-2018 15:45:00 18.7 C 44 % 6.21 C
191 27-04-2018 15:50:00 18.7 C 42 % 5.54 C
192 27-04-2018 15:55:00 18.7 C 43 % 5.88 C
193 27-04-2018 16:00:00 18.6 C 43 % 5.79 C
194 27-04-2018 16:05:00 18.6 C 45 % 6.45 C
195 27-04-2018 16:10:00 18.8 C 45 % 6.63 C
196 27-04-2018 16:15:00 18.9 C 44 % 6.39 C
197 27-04-2018 16:20:00 19.2 C 43 % 6.33 C
198 27-04-2018 16:25:00 19.4 C 42 % 6.17 C
199 27-04-2018 16:30:00 19.7 C 39 % 5.37 C
200 27-04-2018 16:35:00 19.8 C 39 % 5.46 C
Sensor: Nr:Datum:Temp:Feuchte:Taupunkt:
Aussen-T/F 201 27-04-2018 16:40:00 19.9 C 40 % 5.91 C
202 27-04-2018 16:45:00 20.2 C 39 % 5.82 C
203 27-04-2018 16:50:00 20.5 C 39 % 6.08 C
204 27-04-2018 16:55:00 21 C 38 % 6.15 C
205 27-04-2018 17:00:00 21.2 C 39 % 6.71 C
206 27-04-2018 17:05:00 21.3 C 37 % 6.03 C
207 27-04-2018 17:10:00 21.3 C 37 % 6.03 C
208 27-04-2018 17:15:00 21.4 C 36 % 5.73 C
209 27-04-2018 17:20:00 21.4 C 35 % 5.32 C
210 27-04-2018 17:25:00 21.3 C 35 % 5.23 C
211 27-04-2018 17:30:00 21.4 C 36 % 5.73 C
212 27-04-2018 17:35:00 21.6 C 38 % 6.69 C
213 27-04-2018 17:40:00 21.5 C 34 % 4.99 C
214 27-04-2018 17:45:00 21.4 C 37 % 6.12 C
215 27-04-2018 17:50:00 21.6 C 36 % 5.9 C
216 27-04-2018 17:55:00 21.7 C 36 % 5.99 C
217 27-04-2018 18:00:00 22 C 35 % 5.85 C
218 27-04-2018 18:05:00 22.1 C 37 % 6.74 C
219 27-04-2018 18:10:00 22.1 C 35 % 5.94 C
220 27-04-2018 18:15:00 21.7 C 38 % 6.77 C
221 27-04-2018 18:20:00 21.4 C 36 % 5.73 C
222 27-04-2018 18:25:00 21 C 41 % 7.26 C
223 27-04-2018 18:30:00 20.8 C 38 % 5.97 C
224 27-04-2018 18:35:00 20.8 C 37 % 5.59 C
225 27-04-2018 18:40:00 20.8 C 41 % 7.08 C
Sensor: Nr:Datum:Temp:Feuchte:Taupunkt:
Aussen-T/F 226 27-04-2018 18:45:00 21.1 C 37 % 5.86 C
227 27-04-2018 18:50:00 21.2 C 38 % 6.33 C
228 27-04-2018 18:55:00 21.3 C 38 % 6.42 C
229 27-04-2018 19:00:00 21.3 C 38 % 6.42 C
230 27-04-2018 19:05:00 21.3 C 38 % 6.42 C
231 27-04-2018 19:10:00 21.4 C 39 % 6.89 C
232 27-04-2018 19:15:00 21.3 C 39 % 6.8 C
233 27-04-2018 19:20:00 21.2 C 40 % 7.08 C
234 27-04-2018 19:25:00 20.9 C 45 % 8.53 C
235 27-04-2018 19:30:00 20.7 C 47 % 8.99 C
236 27-04-2018 19:35:00 20.4 C 46 % 8.4 C
237 27-04-2018 19:40:00 20.2 C 49 % 9.15 C
238 27-04-2018 19:45:00 19.9 C 47 % 8.26 C
239 27-04-2018 19:50:00 19.7 C 50 % 8.99 C
240 27-04-2018 19:55:00 19.4 C 50 % 8.72 C
241 27-04-2018 20:00:00 19.1 C 51 % 8.73 C
242 27-04-2018 20:05:00 18.7 C 51 % 8.37 C
243 27-04-2018 20:10:00 18.1 C 54 % 8.65 C
244 27-04-2018 20:15:00 17.6 C 55 % 8.46 C
245 27-04-2018 20:20:00 17.1 C 57 % 8.52 C
246 27-04-2018 20:25:00 16.6 C 58 % 8.31 C
247 27-04-2018 20:30:00 16.1 C 59 % 8.09 C
248 27-04-2018 20:35:00 15.7 C 60 % 7.97 C
249 27-04-2018 20:40:00 15.3 C 61 % 7.83 C
250 27-04-2018 20:45:00 15.1 C 63 % 8.12 C
Sensor: Nr:Datum:Temp:Feuchte:Taupunkt:
Aussen-T/F 251 27-04-2018 20:50:00 14.8 C 63 % 7.83 C
252 27-04-2018 20:55:00 14.5 C 65 % 8.01 C
253 27-04-2018 21:00:00 14.2 C 66 % 7.95 C
254 27-04-2018 21:05:00 13.9 C 67 % 7.88 C
255 27-04-2018 21:10:00 13.7 C 67 % 7.69 C
256 27-04-2018 21:15:00 13.5 C 67 % 7.5 C
257 27-04-2018 21:20:00 13.4 C 67 % 7.4 C
258 27-04-2018 21:25:00 13.4 C 68 % 7.62 C
259 27-04-2018 21:30:00 13.3 C 69 % 7.74 C
260 27-04-2018 21:35:00 13.2 C 69 % 7.64 C
261 27-04-2018 21:40:00 13.1 C 69 % 7.55 C
262 27-04-2018 21:45:00 12.9 C 69 % 7.36 C
263 27-04-2018 21:50:00 12.9 C 70 % 7.57 C
264 27-04-2018 21:55:00 12.8 C 70 % 7.47 C
265 27-04-2018 22:00:00 12.7 C 69 % 7.17 C
266 27-04-2018 22:05:00 12.7 C 70 % 7.38 C
267 27-04-2018 22:10:00 12.6 C 70 % 7.28 C
268 27-04-2018 22:15:00 12.6 C 70 % 7.28 C
269 27-04-2018 22:20:00 12.6 C 70 % 7.28 C
270 27-04-2018 22:25:00 12.6 C 71 % 7.49 C
271 27-04-2018 22:30:00 12.7 C 70 % 7.38 C
272 27-04-2018 22:35:00 12.7 C 72 % 7.79 C
273 27-04-2018 22:40:00 12.7 C 71 % 7.58 C
274 27-04-2018 22:45:00 12.7 C 71 % 7.58 C
275 27-04-2018 22:50:00 12.7 C 71 % 7.58 C
Sensor: Nr:Datum:Temp:Feuchte:Taupunkt:
Aussen-T/F 276 27-04-2018 22:55:00 12.7 C 71 % 7.58 C
277 27-04-2018 23:00:00 12.6 C 70 % 7.28 C
278 27-04-2018 23:05:00 12.6 C 71 % 7.49 C
279 27-04-2018 23:10:00 12.6 C 70 % 7.28 C
280 27-04-2018 23:15:00 12.6 C 71 % 7.49 C
281 27-04-2018 23:20:00 12.5 C 70 % 7.18 C
282 27-04-2018 23:25:00 12.5 C 71 % 7.39 C
283 27-04-2018 23:30:00 12.4 C 71 % 7.3 C
284 27-04-2018 23:35:00 12.3 C 71 % 7.2 C
285 27-04-2018 23:40:00 12.2 C 71 % 7.1 C
286 27-04-2018 23:45:00 12.1 C 72 % 7.21 C
287 27-04-2018 23:50:00 12 C 73 % 7.32 C
288 27-04-2018 23:55:00 11.9 C 73 % 7.22 C

Legende:
   Min
   Max


Maximal/Minimal-Werte vom 27.04.2018 - 27.04.2018

Sensor Min Max Avg
Temp
(Aussen-T/F)
4.4 °C
27-04-2018  06:35:00
22.1 °C
27-04-2018  18:05:00
11.96 °C
Feuchte
(Aussen-T/F)
34 %
27-04-2018  17:40:00
93 %
27-04-2018  07:15:00
67.83 %
Taupunkt
(Aussen-T/F)
3.05 C
27-04-2018  03:50:00
9.15 C
27-04-2018  19:40:00
5.34 C

Die Daten stammen von einer Davis Vantage Pro 2 Wetter-Station und werden unter Linux mit der Software wview2wettercgi und aufbereitet. Alle Angaben erfolgen ohne Gewähr für ihre Vollständigkeit oder Richtigkeit.
Kontakt: Rainer Krienke krienke@uni-koblenz.de . Meine Webseiten an der Uni Koblenz oder privat.
Version: $Revision: 0.78 $